sensor_id;sensor_type;location;lat;lon;timestamp;temperature;humidity
11091;DHT22;5599;52.210;21.046;2024-03-23T00:52:29;10.40;1.00
11091;DHT22;5599;52.210;21.046;2024-03-23T00:54:55;10.40;1.00
11091;DHT22;5599;52.210;21.046;2024-03-23T00:57:23;10.40;1.00
11091;DHT22;5599;52.210;21.046;2024-03-23T00:59:50;10.40;1.00
11091;DHT22;5599;52.210;21.046;2024-03-23T01:02:17;10.40;1.00
11091;DHT22;5599;52.210;21.046;2024-03-23T01:04:45;10.30;1.00
11091;DHT22;5599;52.210;21.046;2024-03-23T01:07:12;10.40;1.00
11091;DHT22;5599;52.210;21.046;2024-03-23T01:09:41;10.30;1.00
11091;DHT22;5599;52.210;21.046;2024-03-23T01:12:08;10.30;1.00
11091;DHT22;5599;52.210;21.046;2024-03-23T01:14:35;10.30;1.00
11091;DHT22;5599;52.210;21.046;2024-03-23T01:17:03;10.30;1.00
11091;DHT22;5599;52.210;21.046;2024-03-23T01:19:30;10.40;1.00
11091;DHT22;5599;52.210;21.046;2024-03-23T01:21:58;10.30;1.00
11091;DHT22;5599;52.210;21.046;2024-03-23T01:24:24;10.30;1.00
11091;DHT22;5599;52.210;21.046;2024-03-23T01:26:53;10.20;1.00
11091;DHT22;5599;52.210;21.046;2024-03-23T01:29:20;10.20;1.00
11091;DHT22;5599;52.210;21.046;2024-03-23T01:31:48;10.20;1.00
11091;DHT22;5599;52.210;21.046;2024-03-23T01:34:15;10.20;1.00
11091;DHT22;5599;52.210;21.046;2024-03-23T01:36:42;10.10;1.00
11091;DHT22;5599;52.210;21.046;2024-03-23T01:39:09;10.20;1.00
11091;DHT22;5599;52.210;21.046;2024-03-23T01:41:37;10.20;1.00
11091;DHT22;5599;52.210;21.046;2024-03-23T01:44:07;10.10;1.00
11091;DHT22;5599;52.210;21.046;2024-03-23T01:46:35;10.10;1.00
11091;DHT22;5599;52.210;21.046;2024-03-23T01:49:03;10.10;1.00
11091;DHT22;5599;52.210;21.046;2024-03-23T01:51:31;10.10;1.00
11091;DHT22;5599;52.210;21.046;2024-03-23T01:53:59;10.00;1.00
11091;DHT22;5599;52.210;21.046;2024-03-23T01:56:29;10.10;2.00
11091;DHT22;5599;52.210;21.046;2024-03-23T01:58:56;10.20;9.50
11091;DHT22;5599;52.210;21.046;2024-03-23T02:01:25;10.10;10.80
11091;DHT22;5599;52.210;21.046;2024-03-23T02:03:52;10.20;14.20
11091;DHT22;5599;52.210;21.046;2024-03-23T02:06:19;10.10;11.50
11091;DHT22;5599;52.210;21.046;2024-03-23T02:08:46;10.10;25.60
11091;DHT22;5599;52.210;21.046;2024-03-23T02:11:14;10.10;60.10
11091;DHT22;5599;52.210;21.046;2024-03-23T02:13:41;10.10;55.70
11091;DHT22;5599;52.210;21.046;2024-03-23T02:16:09;10.10;85.70
11091;DHT22;5599;52.210;21.046;2024-03-23T02:18:37;10.20;76.60
11091;DHT22;5599;52.210;21.046;2024-03-23T02:21:05;10.10;63.00
11091;DHT22;5599;52.210;21.046;2024-03-23T02:23:33;10.10;91.20
11091;DHT22;5599;52.210;21.046;2024-03-23T02:26:01;10.10;93.00
11091;DHT22;5599;52.210;21.046;2024-03-23T02:28:27;10.10;99.90
11091;DHT22;5599;52.210;21.046;2024-03-23T02:30:56;10.10;97.30
11091;DHT22;5599;52.210;21.046;2024-03-23T02:33:22;10.10;99.90
11091;DHT22;5599;52.210;21.046;2024-03-23T02:35:50;10.10;99.90
11091;DHT22;5599;52.210;21.046;2024-03-23T02:38:17;10.10;99.90
11091;DHT22;5599;52.210;21.046;2024-03-23T02:40:46;10.20;99.90
11091;DHT22;5599;52.210;21.046;2024-03-23T02:43:12;10.20;99.90
11091;DHT22;5599;52.210;21.046;2024-03-23T02:45:40;10.20;99.90
11091;DHT22;5599;52.210;21.046;2024-03-23T02:48:07;10.20;99.90
11091;DHT22;5599;52.210;21.046;2024-03-23T02:50:35;10.20;99.90
11091;DHT22;5599;52.210;21.046;2024-03-23T02:53:01;10.20;99.90
11091;DHT22;5599;52.210;21.046;2024-03-23T02:55:29;10.20;99.90
11091;DHT22;5599;52.210;21.046;2024-03-23T02:57:57;10.20;99.90
11091;DHT22;5599;52.210;21.046;2024-03-23T03:00:28;10.20;99.90
11091;DHT22;5599;52.210;21.046;2024-03-23T03:02:55;10.10;99.90
11091;DHT22;5599;52.210;21.046;2024-03-23T03:05:23;10.00;99.90
11091;DHT22;5599;52.210;21.046;2024-03-23T03:07:49;10.10;99.90
11091;DHT22;5599;52.210;21.046;2024-03-23T03:10:17;10.10;99.90
11091;DHT22;5599;52.210;21.046;2024-03-23T03:12:44;10.20;99.90
11091;DHT22;5599;52.210;21.046;2024-03-23T03:15:13;10.10;99.90
11091;DHT22;5599;52.210;21.046;2024-03-23T03:17:40;10.20;99.90
11091;DHT22;5599;52.210;21.046;2024-03-23T03:20:08;10.20;99.90
11091;DHT22;5599;52.210;21.046;2024-03-23T03:22:39;10.20;99.90
11091;DHT22;5599;52.210;21.046;2024-03-23T03:25:07;10.20;99.90
11091;DHT22;5599;52.210;21.046;2024-03-23T03:27:34;10.20;99.90
11091;DHT22;5599;52.210;21.046;2024-03-23T03:30:02;10.20;99.90
11091;DHT22;5599;52.210;21.046;2024-03-23T03:32:33;10.20;99.90
11091;DHT22;5599;52.210;21.046;2024-03-23T03:35:01;10.20;99.90
11091;DHT22;5599;52.210;21.046;2024-03-23T03:37:29;10.20;99.90
11091;DHT22;5599;52.210;21.046;2024-03-23T03:39:56;10.20;99.90
11091;DHT22;5599;52.210;21.046;2024-03-23T03:42:23;10.20;99.90
11091;DHT22;5599;52.210;21.046;2024-03-23T03:44:51;10.10;99.90
11091;DHT22;5599;52.210;21.046;2024-03-23T03:47:20;10.10;99.90
11091;DHT22;5599;52.210;21.046;2024-03-23T03:49:49;10.10;99.90
11091;DHT22;5599;52.210;21.046;2024-03-23T03:52:16;10.20;99.90
11091;DHT22;5599;52.210;21.046;2024-03-23T03:54:43;10.20;99.90
11091;DHT22;5599;52.210;21.046;2024-03-23T03:57:10;10.20;99.90
11091;DHT22;5599;52.210;21.046;2024-03-23T03:59:38;10.20;99.90
11091;DHT22;5599;52.210;21.046;2024-03-23T04:02:04;10.20;99.90
11091;DHT22;5599;52.210;21.046;2024-03-23T04:04:32;10.20;99.90
11091;DHT22;5599;52.210;21.046;2024-03-23T04:07:01;10.20;99.90
11091;DHT22;5599;52.210;21.046;2024-03-23T04:09:31;10.20;99.90
11091;DHT22;5599;52.210;21.046;2024-03-23T04:11:58;10.20;99.90
11091;DHT22;5599;52.210;21.046;2024-03-23T04:14:25;10.20;99.90
11091;DHT22;5599;52.210;21.046;2024-03-23T04:16:52;10.20;99.90
11091;DHT22;5599;52.210;21.046;2024-03-23T04:19:21;10.20;99.90
11091;DHT22;5599;52.210;21.046;2024-03-23T04:21:48;10.20;99.90
11091;DHT22;5599;52.210;21.046;2024-03-23T04:24:17;10.20;99.90
11091;DHT22;5599;52.210;21.046;2024-03-23T04:26:46;10.30;99.90
11091;DHT22;5599;52.210;21.046;2024-03-23T04:29:14;10.40;99.90
11091;DHT22;5599;52.210;21.046;2024-03-23T04:31:40;10.40;99.90
11091;DHT22;5599;52.210;21.046;2024-03-23T04:34:08;10.40;99.90
11091;DHT22;5599;52.210;21.046;2024-03-23T04:36:35;10.30;99.90
11091;DHT22;5599;52.210;21.046;2024-03-23T04:39:03;10.40;99.90
11091;DHT22;5599;52.210;21.046;2024-03-23T04:41:32;10.40;99.90
11091;DHT22;5599;52.210;21.046;2024-03-23T04:44:00;10.40;99.90
11091;DHT22;5599;52.210;21.046;2024-03-23T04:46:28;10.40;99.90
11091;DHT22;5599;52.210;21.046;2024-03-23T04:48:55;10.40;99.90
11091;DHT22;5599;52.210;21.046;2024-03-23T04:51:24;10.40;99.90
11091;DHT22;5599;52.210;21.046;2024-03-23T04:53:52;10.40;99.90
11091;DHT22;5599;52.210;21.046;2024-03-23T04:56:20;10.50;99.90
11091;DHT22;5599;52.210;21.046;2024-03-23T04:58:48;10.50;99.90
11091;DHT22;5599;52.210;21.046;2024-03-23T05:01:16;10.50;99.90
11091;DHT22;5599;52.210;21.046;2024-03-23T05:03:42;10.40;99.90
11091;DHT22;5599;52.210;21.046;2024-03-23T05:06:10;10.50;99.90
11091;DHT22;5599;52.210;21.046;2024-03-23T05:08:37;10.50;99.90
11091;DHT22;5599;52.210;21.046;2024-03-23T05:11:04;10.50;99.90
11091;DHT22;5599;52.210;21.046;2024-03-23T05:13:33;10.50;99.90
11091;DHT22;5599;52.210;21.046;2024-03-23T05:16:02;10.50;99.90
11091;DHT22;5599;52.210;21.046;2024-03-23T05:18:29;10.50;99.90
11091;DHT22;5599;52.210;21.046;2024-03-23T05:20:56;10.50;99.90
11091;DHT22;5599;52.210;21.046;2024-03-23T05:23:24;10.40;99.90
11091;DHT22;5599;52.210;21.046;2024-03-23T05:25:52;10.40;99.90
11091;DHT22;5599;52.210;21.046;2024-03-23T05:28:19;10.40;99.90
11091;DHT22;5599;52.210;21.046;2024-03-23T05:30:50;10.40;99.90
11091;DHT22;5599;52.210;21.046;2024-03-23T05:33:19;10.40;99.90
11091;DHT22;5599;52.210;21.046;2024-03-23T05:35:56;10.40;99.90
11091;DHT22;5599;52.210;21.046;2024-03-23T05:38:23;10.40;99.90
11091;DHT22;5599;52.210;21.046;2024-03-23T05:40:54;10.40;99.90
11091;DHT22;5599;52.210;21.046;2024-03-23T05:43:20;10.50;99.90
11091;DHT22;5599;52.210;21.046;2024-03-23T05:45:53;10.50;99.90
11091;DHT22;5599;52.210;21.046;2024-03-23T05:48:22;10.40;99.90
11091;DHT22;5599;52.210;21.046;2024-03-23T05:50:50;10.50;99.90
11091;DHT22;5599;52.210;21.046;2024-03-23T05:53:17;10.50;99.90
11091;DHT22;5599;52.210;21.046;2024-03-23T05:55:45;10.50;99.90
11091;DHT22;5599;52.210;21.046;2024-03-23T05:58:15;10.50;99.90
11091;DHT22;5599;52.210;21.046;2024-03-23T06:00:43;10.50;99.90
11091;DHT22;5599;52.210;21.046;2024-03-23T06:03:10;10.50;99.90
11091;DHT22;5599;52.210;21.046;2024-03-23T06:05:40;10.50;99.90
11091;DHT22;5599;52.210;21.046;2024-03-23T06:08:06;10.50;99.90
11091;DHT22;5599;52.210;21.046;2024-03-23T06:10:35;10.50;99.90
11091;DHT22;5599;52.210;21.046;2024-03-23T06:13:02;10.60;99.90
11091;DHT22;5599;52.210;21.046;2024-03-23T06:15:30;10.60;99.90
11091;DHT22;5599;52.210;21.046;2024-03-23T06:17:57;10.60;99.90
11091;DHT22;5599;52.210;21.046;2024-03-23T06:20:25;10.60;99.90
11091;DHT22;5599;52.210;21.046;2024-03-23T06:22:54;10.60;99.90
11091;DHT22;5599;52.210;21.046;2024-03-23T06:25:22;10.60;99.90
11091;DHT22;5599;52.210;21.046;2024-03-23T06:27:48;10.60;99.90
11091;DHT22;5599;52.210;21.046;2024-03-23T06:30:16;10.70;99.90
11091;DHT22;5599;52.210;21.046;2024-03-23T06:32:43;10.70;99.90
11091;DHT22;5599;52.210;21.046;2024-03-23T06:35:11;10.80;99.90
11091;DHT22;5599;52.210;21.046;2024-03-23T06:37:37;10.80;99.90
11091;DHT22;5599;52.210;21.046;2024-03-23T06:40:09;10.90;99.90
11091;DHT22;5599;52.210;21.046;2024-03-23T06:42:36;10.90;99.90
11091;DHT22;5599;52.210;21.046;2024-03-23T06:45:05;10.80;99.90
11091;DHT22;5599;52.210;21.046;2024-03-23T06:47:32;10.70;99.90
11091;DHT22;5599;52.210;21.046;2024-03-23T06:50:01;10.70;99.90
11091;DHT22;5599;52.210;21.046;2024-03-23T06:52:29;10.80;99.90
11091;DHT22;5599;52.210;21.046;2024-03-23T06:54:58;10.70;99.90
11091;DHT22;5599;52.210;21.046;2024-03-23T06:57:26;10.80;99.90
11091;DHT22;5599;52.210;21.046;2024-03-23T06:59:53;10.80;99.90
11091;DHT22;5599;52.210;21.046;2024-03-23T07:02:20;10.90;99.90
11091;DHT22;5599;52.210;21.046;2024-03-23T07:04:48;11.00;99.90
11091;DHT22;5599;52.210;21.046;2024-03-23T07:07:15;11.00;99.90
11091;DHT22;5599;52.210;21.046;2024-03-23T07:09:42;10.90;65.40
11091;DHT22;5599;52.210;21.046;2024-03-23T07:12:09;11.00;99.90
11091;DHT22;5599;52.210;21.046;2024-03-23T07:14:38;11.00;74.50
11091;DHT22;5599;52.210;21.046;2024-03-23T07:17:05;11.00;48.40
11091;DHT22;5599;52.210;21.046;2024-03-23T07:19:33;10.90;32.40
11091;DHT22;5599;52.210;21.046;2024-03-23T07:21:59;10.90;94.00
11091;DHT22;5599;52.210;21.046;2024-03-23T07:24:27;10.90;99.90
11091;DHT22;5599;52.210;21.046;2024-03-23T07:26:54;10.90;99.90
11091;DHT22;5599;52.210;21.046;2024-03-23T07:29:24;10.90;99.90
11091;DHT22;5599;52.210;21.046;2024-03-23T07:31:52;10.90;99.90
11091;DHT22;5599;52.210;21.046;2024-03-23T07:34:21;10.90;99.90
11091;DHT22;5599;52.210;21.046;2024-03-23T07:36:48;10.90;99.90
11091;DHT22;5599;52.210;21.046;2024-03-23T07:39:15;10.90;99.90
11091;DHT22;5599;52.210;21.046;2024-03-23T07:41:44;11.00;99.90
11091;DHT22;5599;52.210;21.046;2024-03-23T07:44:12;11.00;99.90
11091;DHT22;5599;52.210;21.046;2024-03-23T07:46:39;11.00;99.90
11091;DHT22;5599;52.210;21.046;2024-03-23T07:49:09;11.00;99.90
11091;DHT22;5599;52.210;21.046;2024-03-23T07:51:35;11.00;99.90
11091;DHT22;5599;52.210;21.046;2024-03-23T07:54:05;10.90;99.90
11091;DHT22;5599;52.210;21.046;2024-03-23T07:56:32;10.90;99.90
11091;DHT22;5599;52.210;21.046;2024-03-23T07:59:00;10.90;99.90
11091;DHT22;5599;52.210;21.046;2024-03-23T08:01:27;10.90;99.90
11091;DHT22;5599;52.210;21.046;2024-03-23T08:03:55;11.00;99.90
11091;DHT22;5599;52.210;21.046;2024-03-23T08:06:23;11.00;99.90
11091;DHT22;5599;52.210;21.046;2024-03-23T08:08:53;11.00;99.90
11091;DHT22;5599;52.210;21.046;2024-03-23T08:11:26;11.10;99.90
11091;DHT22;5599;52.210;21.046;2024-03-23T08:13:54;11.20;99.90
11091;DHT22;5599;52.210;21.046;2024-03-23T08:16:20;11.30;99.90
11091;DHT22;5599;52.210;21.046;2024-03-23T08:18:50;11.40;99.90
11091;DHT22;5599;52.210;21.046;2024-03-23T08:21:18;11.30;97.80
11091;DHT22;5599;52.210;21.046;2024-03-23T08:23:47;11.40;99.90
11091;DHT22;5599;52.210;21.046;2024-03-23T08:26:15;11.50;74.60
11091;DHT22;5599;52.210;21.046;2024-03-23T08:28:44;11.50;27.90
11091;DHT22;5599;52.210;21.046;2024-03-23T08:31:11;11.60;23.30
11091;DHT22;5599;52.210;21.046;2024-03-23T08:33:41;11.60;1.00
11091;DHT22;5599;52.210;21.046;2024-03-23T08:36:10;11.60;1.00
11091;DHT22;5599;52.210;21.046;2024-03-23T08:38:38;11.60;1.00
11091;DHT22;5599;52.210;21.046;2024-03-23T08:41:07;11.60;1.00
11091;DHT22;5599;52.210;21.046;2024-03-23T08:43:36;11.60;1.00
11091;DHT22;5599;52.210;21.046;2024-03-23T08:46:04;11.50;1.00
11091;DHT22;5599;52.210;21.046;2024-03-23T08:48:32;11.60;1.00
11091;DHT22;5599;52.210;21.046;2024-03-23T08:51:01;11.90;1.00
11091;DHT22;5599;52.210;21.046;2024-03-23T08:53:29;12.10;1.00
11091;DHT22;5599;52.210;21.046;2024-03-23T08:55:56;12.60;1.00
11091;DHT22;5599;52.210;21.046;2024-03-23T08:58:27;12.90;1.00
11091;DHT22;5599;52.210;21.046;2024-03-23T09:00:55;13.30;1.00
11091;DHT22;5599;52.210;21.046;2024-03-23T09:03:23;13.40;48.30
11091;DHT22;5599;52.210;21.046;2024-03-23T09:05:51;13.40;1.00
11091;DHT22;5599;52.210;21.046;2024-03-23T09:08:19;13.50;1.00
11091;DHT22;5599;52.210;21.046;2024-03-23T09:10:46;13.50;1.00
11091;DHT22;5599;52.210;21.046;2024-03-23T09:13:14;13.70;1.00
11091;DHT22;5599;52.210;21.046;2024-03-23T09:15:48;13.70;1.00
11091;DHT22;5599;52.210;21.046;2024-03-23T09:18:16;13.80;99.90
11091;DHT22;5599;52.210;21.046;2024-03-23T09:20:43;13.80;99.90
11091;DHT22;5599;52.210;21.046;2024-03-23T09:23:11;13.80;99.90
11091;DHT22;5599;52.210;21.046;2024-03-23T09:25:38;13.90;1.00
11091;DHT22;5599;52.210;21.046;2024-03-23T09:28:07;14.10;99.90
11091;DHT22;5599;52.210;21.046;2024-03-23T09:30:35;14.50;1.00
11091;DHT22;5599;52.210;21.046;2024-03-23T09:33:10;14.80;2.50
11091;DHT22;5599;52.210;21.046;2024-03-23T09:35:37;15.30;1.00
11091;DHT22;5599;52.210;21.046;2024-03-23T09:38:05;15.70;1.00
11091;DHT22;5599;52.210;21.046;2024-03-23T09:40:33;15.70;99.90
11091;DHT22;5599;52.210;21.046;2024-03-23T09:43:01;15.60;99.90
11091;DHT22;5599;52.210;21.046;2024-03-23T09:45:29;15.50;99.90
11091;DHT22;5599;52.210;21.046;2024-03-23T09:47:57;15.30;1.00
11091;DHT22;5599;52.210;21.046;2024-03-23T09:50:25;15.20;99.90
11091;DHT22;5599;52.210;21.046;2024-03-23T09:52:53;15.10;1.00
11091;DHT22;5599;52.210;21.046;2024-03-23T09:55:20;14.90;1.00
11091;DHT22;5599;52.210;21.046;2024-03-23T09:57:48;14.80;99.90
11091;DHT22;5599;52.210;21.046;2024-03-23T10:00:16;14.80;20.50
11091;DHT22;5599;52.210;21.046;2024-03-23T10:02:44;14.90;1.00
11091;DHT22;5599;52.210;21.046;2024-03-23T10:05:20;15.00;69.80
11091;DHT22;5599;52.210;21.046;2024-03-23T10:07:51;15.30;1.00
11091;DHT22;5599;52.210;21.046;2024-03-23T10:10:18;15.50;99.90
11091;DHT22;5599;52.210;21.046;2024-03-23T10:12:46;15.60;1.00
11091;DHT22;5599;52.210;21.046;2024-03-23T10:15:21;15.90;99.90
11091;DHT22;5599;52.210;21.046;2024-03-23T10:17:49;16.00;99.90
11091;DHT22;5599;52.210;21.046;2024-03-23T10:20:19;16.10;99.90
11091;DHT22;5599;52.210;21.046;2024-03-23T10:22:50;16.30;1.00
11091;DHT22;5599;52.210;21.046;2024-03-23T10:25:22;16.50;99.90
11091;DHT22;5599;52.210;21.046;2024-03-23T10:27:58;16.60;18.50
11091;DHT22;5599;52.210;21.046;2024-03-23T10:30:27;16.80;1.00
11091;DHT22;5599;52.210;21.046;2024-03-23T10:33:07;16.90;1.00
11091;DHT22;5599;52.210;21.046;2024-03-23T10:35:36;17.20;99.90
11091;DHT22;5599;52.210;21.046;2024-03-23T10:38:05;17.20;1.00
11091;DHT22;5599;52.210;21.046;2024-03-23T10:40:34;17.20;1.00
11091;DHT22;5599;52.210;21.046;2024-03-23T10:43:03;17.30;1.00
11091;DHT22;5599;52.210;21.046;2024-03-23T10:45:32;17.20;27.90
11091;DHT22;5599;52.210;21.046;2024-03-23T10:48:01;17.30;1.00
11091;DHT22;5599;52.210;21.046;2024-03-23T10:50:29;17.40;99.90
11091;DHT22;5599;52.210;21.046;2024-03-23T10:52:56;17.50;99.90
11091;DHT22;5599;52.210;21.046;2024-03-23T10:55:28;17.60;1.00
11091;DHT22;5599;52.210;21.046;2024-03-23T10:57:56;17.80;1.00
11091;DHT22;5599;52.210;21.046;2024-03-23T11:00:25;17.90;1.00
11091;DHT22;5599;52.210;21.046;2024-03-23T11:02:53;18.00;99.90
11091;DHT22;5599;52.210;21.046;2024-03-23T11:05:30;18.00;99.90
11091;DHT22;5599;52.210;21.046;2024-03-23T11:07:57;18.20;1.00
11091;DHT22;5599;52.210;21.046;2024-03-23T11:10:28;18.00;1.00
11091;DHT22;5599;52.210;21.046;2024-03-23T11:12:55;18.10;99.90
11091;DHT22;5599;52.210;21.046;2024-03-23T11:15:23;18.20;99.90
11091;DHT22;5599;52.210;21.046;2024-03-23T11:18:03;18.30;1.00
11091;DHT22;5599;52.210;21.046;2024-03-23T11:20:32;18.30;1.00
11091;DHT22;5599;52.210;21.046;2024-03-23T11:23:00;18.20;99.90
11091;DHT22;5599;52.210;21.046;2024-03-23T11:25:29;18.20;99.90
11091;DHT22;5599;52.210;21.046;2024-03-23T11:27:57;18.30;99.90
11091;DHT22;5599;52.210;21.046;2024-03-23T11:30:27;18.40;1.00
11091;DHT22;5599;52.210;21.046;2024-03-23T11:32:55;18.50;99.90
11091;DHT22;5599;52.210;21.046;2024-03-23T11:35:27;18.40;1.00
11091;DHT22;5599;52.210;21.046;2024-03-23T11:38:04;18.50;1.00
11091;DHT22;5599;52.210;21.046;2024-03-23T11:40:35;18.50;99.90
11091;DHT22;5599;52.210;21.046;2024-03-23T11:43:03;18.40;1.00
11091;DHT22;5599;52.210;21.046;2024-03-23T11:45:35;18.50;3.90
11091;DHT22;5599;52.210;21.046;2024-03-23T11:48:04;18.60;1.00
11091;DHT22;5599;52.210;21.046;2024-03-23T11:50:32;18.70;1.00
11091;DHT22;5599;52.210;21.046;2024-03-23T11:53:12;18.80;99.90
11091;DHT22;5599;52.210;21.046;2024-03-23T11:55:46;18.80;99.90
11091;DHT22;5599;52.210;21.046;2024-03-23T11:58:14;18.70;1.00
11091;DHT22;5599;52.210;21.046;2024-03-23T12:00:42;18.60;99.90
11091;DHT22;5599;52.210;21.046;2024-03-23T12:03:08;18.60;99.90
11091;DHT22;5599;52.210;21.046;2024-03-23T12:05:37;18.60;1.00
11091;DHT22;5599;52.210;21.046;2024-03-23T12:08:18;18.70;99.90
11091;DHT22;5599;52.210;21.046;2024-03-23T12:10:50;18.70;1.00
11091;DHT22;5599;52.210;21.046;2024-03-23T12:13:19;18.60;99.90
11091;DHT22;5599;52.210;21.046;2024-03-23T12:15:47;18.60;1.00
11091;DHT22;5599;52.210;21.046;2024-03-23T12:18:15;18.50;99.90
11091;DHT22;5599;52.210;21.046;2024-03-23T12:20:42;18.50;1.00
11091;DHT22;5599;52.210;21.046;2024-03-23T12:23:11;18.70;99.90
11091;DHT22;5599;52.210;21.046;2024-03-23T12:25:41;18.80;99.90
11091;DHT22;5599;52.210;21.046;2024-03-23T12:28:10;18.60;59.70
11091;DHT22;5599;52.210;21.046;2024-03-23T12:30:39;18.70;1.00
11091;DHT22;5599;52.210;21.046;2024-03-23T12:33:07;18.80;99.90
11091;DHT22;5599;52.210;21.046;2024-03-23T12:35:34;18.70;99.90
11091;DHT22;5599;52.210;21.046;2024-03-23T12:38:02;18.70;1.00
11091;DHT22;5599;52.210;21.046;2024-03-23T12:40:29;18.60;1.00
11091;DHT22;5599;52.210;21.046;2024-03-23T12:42:56;18.50;1.00
11091;DHT22;5599;52.210;21.046;2024-03-23T12:45:25;18.30;1.00
11091;DHT22;5599;52.210;21.046;2024-03-23T12:47:53;18.10;99.90
11091;DHT22;5599;52.210;21.046;2024-03-23T12:50:20;18.00;1.00
11091;DHT22;5599;52.210;21.046;2024-03-23T12:52:48;17.90;1.00
11091;DHT22;5599;52.210;21.046;2024-03-23T12:55:15;17.70;1.00
11091;DHT22;5599;52.210;21.046;2024-03-23T12:57:43;17.60;1.00
11091;DHT22;5599;52.210;21.046;2024-03-23T13:00:10;17.60;1.00
11091;DHT22;5599;52.210;21.046;2024-03-23T13:02:40;17.60;1.00
11091;DHT22;5599;52.210;21.046;2024-03-23T13:05:07;17.60;1.00
11091;DHT22;5599;52.210;21.046;2024-03-23T13:07:36;17.50;99.90
11091;DHT22;5599;52.210;21.046;2024-03-23T13:10:05;17.40;1.00
11091;DHT22;5599;52.210;21.046;2024-03-23T13:12:33;17.40;1.00
11091;DHT22;5599;52.210;21.046;2024-03-23T13:15:00;17.40;1.00
11091;DHT22;5599;52.210;21.046;2024-03-23T13:17:29;17.60;99.90
11091;DHT22;5599;52.210;21.046;2024-03-23T13:19:57;17.60;99.90
11091;DHT22;5599;52.210;21.046;2024-03-23T13:22:25;17.60;1.00
11091;DHT22;5599;52.210;21.046;2024-03-23T13:24:52;17.60;1.00
11091;DHT22;5599;52.210;21.046;2024-03-23T13:27:20;17.50;99.90
11091;DHT22;5599;52.210;21.046;2024-03-23T13:29:46;17.60;1.00
11091;DHT22;5599;52.210;21.046;2024-03-23T13:32:14;17.50;1.00
11091;DHT22;5599;52.210;21.046;2024-03-23T13:34:41;17.40;1.00
11091;DHT22;5599;52.210;21.046;2024-03-23T13:37:10;17.30;1.00
11091;DHT22;5599;52.210;21.046;2024-03-23T13:39:37;17.40;1.00
11091;DHT22;5599;52.210;21.046;2024-03-23T13:42:05;17.40;1.00
11091;DHT22;5599;52.210;21.046;2024-03-23T13:44:32;17.50;1.00
11091;DHT22;5599;52.210;21.046;2024-03-23T13:47:00;17.50;1.00
11091;DHT22;5599;52.210;21.046;2024-03-23T13:49:28;17.60;1.00
11091;DHT22;5599;52.210;21.046;2024-03-23T13:51:57;17.50;99.90
11091;DHT22;5599;52.210;21.046;2024-03-23T13:54:26;17.50;1.00
11091;DHT22;5599;52.210;21.046;2024-03-23T13:56:55;17.50;1.00
11091;DHT22;5599;52.210;21.046;2024-03-23T13:59:22;17.40;1.00
11091;DHT22;5599;52.210;21.046;2024-03-23T14:01:50;17.50;1.00
11091;DHT22;5599;52.210;21.046;2024-03-23T14:04:18;17.40;1.00
11091;DHT22;5599;52.210;21.046;2024-03-23T14:06:47;17.30;99.90
11091;DHT22;5599;52.210;21.046;2024-03-23T14:09:14;17.30;1.00
11091;DHT22;5599;52.210;21.046;2024-03-23T14:11:49;17.30;1.00
11091;DHT22;5599;52.210;21.046;2024-03-23T14:14:17;17.30;1.00
11091;DHT22;5599;52.210;21.046;2024-03-23T14:16:45;17.20;1.00
11091;DHT22;5599;52.210;21.046;2024-03-23T14:19:11;17.30;1.00
11091;DHT22;5599;52.210;21.046;2024-03-23T14:21:39;17.30;99.90
11091;DHT22;5599;52.210;21.046;2024-03-23T14:24:07;17.20;1.00
11091;DHT22;5599;52.210;21.046;2024-03-23T14:26:35;17.20;99.90
11091;DHT22;5599;52.210;21.046;2024-03-23T14:29:03;17.10;99.90
11091;DHT22;5599;52.210;21.046;2024-03-23T14:31:31;17.10;1.00
11091;DHT22;5599;52.210;21.046;2024-03-23T14:33:58;17.10;99.90
11091;DHT22;5599;52.210;21.046;2024-03-23T14:36:26;17.00;74.90
11091;DHT22;5599;52.210;21.046;2024-03-23T14:38:54;17.10;1.00
11091;DHT22;5599;52.210;21.046;2024-03-23T14:41:21;17.10;1.00
11091;DHT22;5599;52.210;21.046;2024-03-23T14:43:48;17.10;99.90
11091;DHT22;5599;52.210;21.046;2024-03-23T14:46:18;17.00;1.00
11091;DHT22;5599;52.210;21.046;2024-03-23T14:48:46;17.00;1.00
11091;DHT22;5599;52.210;21.046;2024-03-23T14:51:13;16.90;99.90
11091;DHT22;5599;52.210;21.046;2024-03-23T14:53:41;16.90;1.00
11091;DHT22;5599;52.210;21.046;2024-03-23T14:56:12;16.90;1.00
11091;DHT22;5599;52.210;21.046;2024-03-23T14:58:42;16.90;1.00
11091;DHT22;5599;52.210;21.046;2024-03-23T15:01:12;16.90;1.00
11091;DHT22;5599;52.210;21.046;2024-03-23T15:03:40;16.90;94.80
11091;DHT22;5599;52.210;21.046;2024-03-23T15:06:09;16.90;45.90
11091;DHT22;5599;52.210;21.046;2024-03-23T15:08:37;16.70;99.90
11091;DHT22;5599;52.210;21.046;2024-03-23T15:11:06;16.50;99.90
11091;DHT22;5599;52.210;21.046;2024-03-23T15:13:33;16.30;1.00
11091;DHT22;5599;52.210;21.046;2024-03-23T15:16:01;16.20;1.00
11091;DHT22;5599;52.210;21.046;2024-03-23T15:18:30;15.90;99.90
11091;DHT22;5599;52.210;21.046;2024-03-23T15:21:00;15.70;99.90
11091;DHT22;5599;52.210;21.046;2024-03-23T15:23:29;15.40;99.90
11091;DHT22;5599;52.210;21.046;2024-03-23T15:25:57;15.20;1.00
11091;DHT22;5599;52.210;21.046;2024-03-23T15:28:24;14.90;99.90
11091;DHT22;5599;52.210;21.046;2024-03-23T15:30:58;14.70;7.50
11091;DHT22;5599;52.210;21.046;2024-03-23T15:33:25;14.40;1.00
11091;DHT22;5599;52.210;21.046;2024-03-23T15:35:53;14.30;1.00
11091;DHT22;5599;52.210;21.046;2024-03-23T15:38:21;14.10;99.90
11091;DHT22;5599;52.210;21.046;2024-03-23T15:40:51;14.00;1.00
11091;DHT22;5599;52.210;21.046;2024-03-23T15:43:18;13.90;55.30
11091;DHT22;5599;52.210;21.046;2024-03-23T15:45:54;13.70;99.90
11091;DHT22;5599;52.210;21.046;2024-03-23T15:48:21;13.50;99.90
11091;DHT22;5599;52.210;21.046;2024-03-23T15:50:52;13.30;1.00
11091;DHT22;5599;52.210;21.046;2024-03-23T15:53:21;13.20;1.00
11091;DHT22;5599;52.210;21.046;2024-03-23T15:55:53;13.10;1.00
11091;DHT22;5599;52.210;21.046;2024-03-23T15:58:20;13.00;1.00
11091;DHT22;5599;52.210;21.046;2024-03-23T16:00:54;12.90;1.00
11091;DHT22;5599;52.210;21.046;2024-03-23T16:03:21;12.90;1.00
11091;DHT22;5599;52.210;21.046;2024-03-23T16:05:52;12.90;1.00
11091;DHT22;5599;52.210;21.046;2024-03-23T16:08:21;12.80;1.00
11091;DHT22;5599;52.210;21.046;2024-03-23T16:10:49;12.80;1.00
11091;DHT22;5599;52.210;21.046;2024-03-23T16:13:16;12.80;1.00
11091;DHT22;5599;52.210;21.046;2024-03-23T16:15:44;12.70;1.00
11091;DHT22;5599;52.210;21.046;2024-03-23T16:18:11;12.80;1.00
11091;DHT22;5599;52.210;21.046;2024-03-23T16:20:39;12.80;1.00
11091;DHT22;5599;52.210;21.046;2024-03-23T16:23:06;12.70;1.00
11091;DHT22;5599;52.210;21.046;2024-03-23T16:25:35;12.70;1.00
11091;DHT22;5599;52.210;21.046;2024-03-23T16:28:04;12.80;1.00
11091;DHT22;5599;52.210;21.046;2024-03-23T16:30:32;12.80;1.00
11091;DHT22;5599;52.210;21.046;2024-03-23T16:32:59;12.80;1.00
11091;DHT22;5599;52.210;21.046;2024-03-23T16:35:27;12.80;1.00